sensor_id;sensor_type;location;lat;lon;timestamp;pressure;altitude;pressure_sealevel;temperature;humidity
56721;BME280;53183;47.412;18.884;2024-03-25T00:00:40;98262.59;;;3.14;100.00
56721;BME280;53183;47.412;18.884;2024-03-25T00:03:07;98264.88;;;3.01;100.00
56721;BME280;53183;47.412;18.884;2024-03-25T00:05:33;98263.50;;;2.93;100.00
56721;BME280;53183;47.412;18.884;2024-03-25T00:08:00;98257.88;;;2.81;100.00
56721;BME280;53183;47.412;18.884;2024-03-25T00:10:26;98255.78;;;2.69;100.00
56721;BME280;53183;47.412;18.884;2024-03-25T00:12:53;98258.84;;;2.58;100.00
56721;BME280;53183;47.412;18.884;2024-03-25T00:15:21;98255.78;;;2.49;100.00
56721;BME280;53183;47.412;18.884;2024-03-25T00:17:50;98255.72;;;2.50;100.00
56721;BME280;53183;47.412;18.884;2024-03-25T00:20:16;98264.16;;;2.35;100.00
56721;BME280;53183;47.412;18.884;2024-03-25T00:22:42;98253.59;;;2.38;100.00
56721;BME280;53183;47.412;18.884;2024-03-25T00:25:08;98253.84;;;2.32;100.00
56721;BME280;53183;47.412;18.884;2024-03-25T00:27:35;98259.25;;;2.27;100.00
56721;BME280;53183;47.412;18.884;2024-03-25T00:30:01;98245.50;;;2.24;100.00
56721;BME280;53183;47.412;18.884;2024-03-25T00:32:29;98243.91;;;2.20;100.00
56721;BME280;53183;47.412;18.884;2024-03-25T00:34:55;98244.75;;;2.20;100.00
56721;BME280;53183;47.412;18.884;2024-03-25T00:37:22;98245.88;;;2.15;100.00
56721;BME280;53183;47.412;18.884;2024-03-25T00:39:49;98239.06;;;2.10;100.00
56721;BME280;53183;47.412;18.884;2024-03-25T00:42:15;98244.25;;;2.10;100.00
56721;BME280;53183;47.412;18.884;2024-03-25T00:44:42;98235.84;;;2.26;100.00
56721;BME280;53183;47.412;18.884;2024-03-25T00:47:09;98237.72;;;2.44;100.00
56721;BME280;53183;47.412;18.884;2024-03-25T00:49:35;98229.81;;;2.46;100.00
56721;BME280;53183;47.412;18.884;2024-03-25T00:52:03;98230.13;;;2.38;100.00
56721;BME280;53183;47.412;18.884;2024-03-25T00:54:29;98226.69;;;2.38;100.00
56721;BME280;53183;47.412;18.884;2024-03-25T00:56:56;98232.31;;;2.49;100.00
56721;BME280;53183;47.412;18.884;2024-03-25T00:59:23;98233.22;;;2.48;100.00
56721;BME280;53183;47.412;18.884;2024-03-25T01:01:49;98234.72;;;2.53;100.00
56721;BME280;53183;47.412;18.884;2024-03-25T01:04:16;98242.94;;;2.44;100.00
56721;BME280;53183;47.412;18.884;2024-03-25T01:06:43;98239.28;;;2.48;100.00
56721;BME280;53183;47.412;18.884;2024-03-25T01:09:09;98233.50;;;2.40;100.00
56721;BME280;53183;47.412;18.884;2024-03-25T01:11:36;98234.06;;;2.26;100.00
56721;BME280;53183;47.412;18.884;2024-03-25T01:14:02;98238.94;;;2.35;100.00
56721;BME280;53183;47.412;18.884;2024-03-25T01:16:29;98240.87;;;2.30;100.00
56721;BME280;53183;47.412;18.884;2024-03-25T01:18:55;98243.66;;;2.26;100.00
56721;BME280;53183;47.412;18.884;2024-03-25T01:21:21;98243.91;;;2.20;100.00
56721;BME280;53183;47.412;18.884;2024-03-25T01:23:48;98239.84;;;2.12;100.00
56721;BME280;53183;47.412;18.884;2024-03-25T01:26:15;98229.31;;;2.16;100.00
56721;BME280;53183;47.412;18.884;2024-03-25T01:28:41;98232.94;;;2.11;100.00
56721;BME280;53183;47.412;18.884;2024-03-25T01:31:08;98232.59;;;2.21;100.00
56721;BME280;53183;47.412;18.884;2024-03-25T01:33:34;98226.97;;;2.30;100.00
56721;BME280;53183;47.412;18.884;2024-03-25T01:36:01;98230.72;;;2.24;100.00
56721;BME280;53183;47.412;18.884;2024-03-25T01:38:34;98227.25;;;2.24;100.00
56721;BME280;53183;47.412;18.884;2024-03-25T01:41:11;98228.88;;;2.26;100.00
56721;BME280;53183;47.412;18.884;2024-03-25T01:43:37;98224.94;;;2.38;100.00
56721;BME280;53183;47.412;18.884;2024-03-25T01:46:05;98221.34;;;2.41;100.00
56721;BME280;53183;47.412;18.884;2024-03-25T01:48:31;98226.97;;;2.52;100.00
56721;BME280;53183;47.412;18.884;2024-03-25T01:50:58;98224.63;;;2.66;100.00
56721;BME280;53183;47.412;18.884;2024-03-25T01:53:25;98229.81;;;2.66;100.00
56721;BME280;53183;47.412;18.884;2024-03-25T01:55:54;98223.19;;;2.79;100.00
56721;BME280;53183;47.412;18.884;2024-03-25T01:58:22;98213.31;;;2.86;100.00
56721;BME280;53183;47.412;18.884;2024-03-25T02:00:52;98225.75;;;2.81;100.00
56721;BME280;53183;47.412;18.884;2024-03-25T02:03:18;98216.34;;;2.77;100.00
56721;BME280;53183;47.412;18.884;2024-03-25T02:05:44;98225.75;;;2.81;100.00
56721;BME280;53183;47.412;18.884;2024-03-25T02:08:11;98217.19;;;2.77;100.00
56721;BME280;53183;47.412;18.884;2024-03-25T02:10:38;98220.78;;;2.75;100.00
56721;BME280;53183;47.412;18.884;2024-03-25T02:13:04;98222.34;;;2.79;100.00
56721;BME280;53183;47.412;18.884;2024-03-25T02:15:30;98215.53;;;2.95;100.00
56721;BME280;53183;47.412;18.884;2024-03-25T02:17:57;98214.88;;;3.11;100.00
56721;BME280;53183;47.412;18.884;2024-03-25T02:20:23;98211.75;;;3.23;100.00
56721;BME280;53183;47.412;18.884;2024-03-25T02:22:50;98221.62;;;3.35;100.00
56721;BME280;53183;47.412;18.884;2024-03-25T02:25:17;98212.09;;;3.34;100.00
56721;BME280;53183;47.412;18.884;2024-03-25T02:27:43;98209.13;;;3.42;100.00
56721;BME280;53183;47.412;18.884;2024-03-25T02:30:11;98207.97;;;3.49;100.00
56721;BME280;53183;47.412;18.884;2024-03-25T02:32:40;98212.44;;;3.45;100.00
56721;BME280;53183;47.412;18.884;2024-03-25T02:35:09;98213.19;;;3.49;100.00
56721;BME280;53183;47.412;18.884;2024-03-25T02:37:37;98211.31;;;3.51;100.00
56721;BME280;53183;47.412;18.884;2024-03-25T02:40:07;98210.72;;;3.46;100.00
56721;BME280;53183;47.412;18.884;2024-03-25T02:42:35;98215.94;;;3.46;100.00
56721;BME280;53183;47.412;18.884;2024-03-25T02:45:03;98213.50;;;3.41;100.00
56721;BME280;53183;47.412;18.884;2024-03-25T02:47:31;98216.59;;;3.31;100.00
56721;BME280;53183;47.412;18.884;2024-03-25T02:49:57;98218.28;;;3.32;100.00
56721;BME280;53183;47.412;18.884;2024-03-25T02:52:23;98222.19;;;3.42;100.00
56721;BME280;53183;47.412;18.884;2024-03-25T02:54:50;98212.88;;;3.36;100.00
56721;BME280;53183;47.412;18.884;2024-03-25T02:57:17;98219.88;;;3.36;100.00
56721;BME280;53183;47.412;18.884;2024-03-25T02:59:44;98217.63;;;3.47;100.00
56721;BME280;53183;47.412;18.884;2024-03-25T03:02:11;98217.06;;;3.59;100.00
56721;BME280;53183;47.412;18.884;2024-03-25T03:04:36;98220.09;;;3.69;100.00
56721;BME280;53183;47.412;18.884;2024-03-25T03:07:04;98226.22;;;3.87;100.00
56721;BME280;53183;47.412;18.884;2024-03-25T03:09:30;98224.44;;;3.87;100.00
56721;BME280;53183;47.412;18.884;2024-03-25T03:11:56;98227.19;;;4.03;100.00
56721;BME280;53183;47.412;18.884;2024-03-25T03:14:22;98227.91;;;4.07;100.00
56721;BME280;53183;47.412;18.884;2024-03-25T03:16:48;98231.28;;;4.09;100.00
56721;BME280;53183;47.412;18.884;2024-03-25T03:19:15;98228.53;;;4.12;100.00
56721;BME280;53183;47.412;18.884;2024-03-25T03:21:41;98232.06;;;4.11;100.00
56721;BME280;53183;47.412;18.884;2024-03-25T03:24:07;98234.38;;;4.17;100.00
56721;BME280;53183;47.412;18.884;2024-03-25T03:26:34;98237.00;;;4.17;100.00
56721;BME280;53183;47.412;18.884;2024-03-25T03:29:00;98234.53;;;4.14;100.00
56721;BME280;53183;47.412;18.884;2024-03-25T03:31:28;98234.81;;;4.08;100.00
56721;BME280;53183;47.412;18.884;2024-03-25T03:33:54;98240.03;;;4.08;100.00
56721;BME280;53183;47.412;18.884;2024-03-25T03:36:22;98237.06;;;4.15;100.00
56721;BME280;53183;47.412;18.884;2024-03-25T03:38:51;98237.66;;;4.03;100.00
56721;BME280;53183;47.412;18.884;2024-03-25T03:41:18;98233.81;;;4.10;100.00
56721;BME280;53183;47.412;18.884;2024-03-25T03:43:44;98234.25;;;4.01;100.00
56721;BME280;53183;47.412;18.884;2024-03-25T03:46:11;98242.69;;;3.89;100.00
56721;BME280;53183;47.412;18.884;2024-03-25T03:48:37;98242.03;;;3.84;100.00
56721;BME280;53183;47.412;18.884;2024-03-25T03:51:05;98250.59;;;3.87;100.00
56721;BME280;53183;47.412;18.884;2024-03-25T03:53:32;98252.12;;;3.91;100.00
56721;BME280;53183;47.412;18.884;2024-03-25T03:56:01;98251.22;;;3.92;100.00
56721;BME280;53183;47.412;18.884;2024-03-25T03:58:30;98258.84;;;3.97;100.00
56721;BME280;53183;47.412;18.884;2024-03-25T04:00:56;98258.56;;;4.03;100.00
56721;BME280;53183;47.412;18.884;2024-03-25T04:03:22;98269.06;;;4.20;100.00
56721;BME280;53183;47.412;18.884;2024-03-25T04:05:48;98265.19;;;4.29;100.00
56721;BME280;53183;47.412;18.884;2024-03-25T04:08:14;98255.78;;;4.25;100.00
56721;BME280;53183;47.412;18.884;2024-03-25T04:10:43;98270.31;;;4.31;100.00
56721;BME280;53183;47.412;18.884;2024-03-25T04:13:28;98264.78;;;4.37;100.00
56721;BME280;53183;47.412;18.884;2024-03-25T04:16:00;98257.09;;;4.34;100.00
56721;BME280;53183;47.412;18.884;2024-03-25T04:18:27;98261.34;;;4.36;100.00
56721;BME280;53183;47.412;18.884;2024-03-25T04:20:54;98263.25;;;4.33;100.00
56721;BME280;53183;47.412;18.884;2024-03-25T04:23:20;98270.25;;;4.32;100.00
56721;BME280;53183;47.412;18.884;2024-03-25T04:25:46;98274.09;;;4.25;100.00
56721;BME280;53183;47.412;18.884;2024-03-25T04:28:12;98268.56;;;4.31;100.00
56721;BME280;53183;47.412;18.884;2024-03-25T04:30:38;98278.09;;;4.32;100.00
56721;BME280;53183;47.412;18.884;2024-03-25T04:33:04;98280.72;;;4.32;100.00
56721;BME280;53183;47.412;18.884;2024-03-25T04:35:30;98283.09;;;4.37;100.00
56721;BME280;53183;47.412;18.884;2024-03-25T04:37:57;98281.19;;;4.40;100.00
56721;BME280;53183;47.412;18.884;2024-03-25T04:40:23;98275.81;;;4.43;100.00
56721;BME280;53183;47.412;18.884;2024-03-25T04:42:50;98282.59;;;4.47;100.00
56721;BME280;53183;47.412;18.884;2024-03-25T04:45:16;98290.28;;;4.51;100.00
56721;BME280;53183;47.412;18.884;2024-03-25T04:47:42;98291.38;;;4.64;100.00
56721;BME280;53183;47.412;18.884;2024-03-25T04:50:09;98294.22;;;4.59;100.00
56721;BME280;53183;47.412;18.884;2024-03-25T04:52:37;98301.37;;;4.56;100.00
56721;BME280;53183;47.412;18.884;2024-03-25T04:55:04;98304.69;;;4.59;100.00
56721;BME280;53183;47.412;18.884;2024-03-25T04:57:30;98308.00;;;4.63;100.00
56721;BME280;53183;47.412;18.884;2024-03-25T04:59:56;98307.94;;;4.64;100.00
56721;BME280;53183;47.412;18.884;2024-03-25T05:02:24;98309.25;;;4.73;100.00
56721;BME280;53183;47.412;18.884;2024-03-25T05:04:50;98310.03;;;4.75;100.00
56721;BME280;53183;47.412;18.884;2024-03-25T05:07:18;98317.25;;;4.70;100.00
56721;BME280;53183;47.412;18.884;2024-03-25T05:09:45;98320.06;;;4.84;100.00
56721;BME280;53183;47.412;18.884;2024-03-25T05:12:11;98326.13;;;4.85;100.00
56721;BME280;53183;47.412;18.884;2024-03-25T05:14:39;98320.75;;;4.88;100.00
56721;BME280;53183;47.412;18.884;2024-03-25T05:17:05;98324.47;;;5.01;100.00
56721;BME280;53183;47.412;18.884;2024-03-25T05:19:34;98329.31;;;4.91;100.00
56721;BME280;53183;47.412;18.884;2024-03-25T05:22:00;98327.91;;;5.02;100.00
56721;BME280;53183;47.412;18.884;2024-03-25T05:24:27;98332.75;;;5.09;100.00
56721;BME280;53183;47.412;18.884;2024-03-25T05:26:54;98338.00;;;5.09;100.00
56721;BME280;53183;47.412;18.884;2024-03-25T05:29:20;98326.84;;;5.06;100.00
56721;BME280;53183;47.412;18.884;2024-03-25T05:32:00;98336.41;;;5.07;100.00
56721;BME280;53183;47.412;18.884;2024-03-25T05:34:27;98335.62;;;5.05;100.00
56721;BME280;53183;47.412;18.884;2024-03-25T05:36:54;98350.34;;;5.07;100.00
56721;BME280;53183;47.412;18.884;2024-03-25T05:39:20;98348.41;;;5.11;100.00
56721;BME280;53183;47.412;18.884;2024-03-25T05:41:48;98355.34;;;5.12;100.00
56721;BME280;53183;47.412;18.884;2024-03-25T05:44:14;98360.66;;;5.10;100.00
56721;BME280;53183;47.412;18.884;2024-03-25T05:46:40;98359.03;;;5.08;100.00
56721;BME280;53183;47.412;18.884;2024-03-25T05:49:07;98355.47;;;5.09;100.00
56721;BME280;53183;47.412;18.884;2024-03-25T05:51:33;98366.06;;;5.25;100.00
56721;BME280;53183;47.412;18.884;2024-03-25T05:54:00;98361.66;;;5.25;100.00
56721;BME280;53183;47.412;18.884;2024-03-25T05:56:28;98361.81;;;5.22;100.00
56721;BME280;53183;47.412;18.884;2024-03-25T05:58:57;98361.50;;;5.28;100.00
56721;BME280;53183;47.412;18.884;2024-03-25T06:01:24;98360.97;;;5.22;100.00
56721;BME280;53183;47.412;18.884;2024-03-25T06:03:50;98355.72;;;5.39;100.00
56721;BME280;53183;47.412;18.884;2024-03-25T06:06:17;98360.97;;;5.56;100.00
56721;BME280;53183;47.412;18.884;2024-03-25T06:08:44;98355.34;;;5.47;100.00
56721;BME280;53183;47.412;18.884;2024-03-25T06:11:10;98357.94;;;5.64;100.00
56721;BME280;53183;47.412;18.884;2024-03-25T06:13:38;98361.94;;;5.71;100.00
56721;BME280;53183;47.412;18.884;2024-03-25T06:16:05;98359.25;;;5.88;100.00
56721;BME280;53183;47.412;18.884;2024-03-25T06:18:31;98356.13;;;5.99;100.00
56721;BME280;53183;47.412;18.884;2024-03-25T06:20:57;98356.44;;;5.93;100.00
56721;BME280;53183;47.412;18.884;2024-03-25T06:23:25;98360.66;;;6.29;100.00
56721;BME280;53183;47.412;18.884;2024-03-25T06:25:55;98359.28;;;6.38;100.00
56721;BME280;53183;47.412;18.884;2024-03-25T06:28:22;98354.53;;;6.28;100.00
56721;BME280;53183;47.412;18.884;2024-03-25T06:30:49;98357.94;;;6.46;100.00
56721;BME280;53183;47.412;18.884;2024-03-25T06:33:35;98359.84;;;6.74;100.00
56721;BME280;53183;47.412;18.884;2024-03-25T06:36:20;98364.75;;;6.80;100.00
56721;BME280;53183;47.412;18.884;2024-03-25T06:38:47;98363.72;;;7.29;100.00
56721;BME280;53183;47.412;18.884;2024-03-25T06:41:13;98363.69;;;7.59;98.17
56721;BME280;53183;47.412;18.884;2024-03-25T06:43:39;98370.47;;;7.63;97.89
56721;BME280;53183;47.412;18.884;2024-03-25T06:46:06;98370.09;;;7.55;96.57
56721;BME280;53183;47.412;18.884;2024-03-25T06:48:33;98367.16;;;7.60;97.79
56721;BME280;53183;47.412;18.884;2024-03-25T06:51:04;98380.59;;;7.55;98.00
56721;BME280;53183;47.412;18.884;2024-03-25T06:53:31;98379.00;;;7.22;98.48
56721;BME280;53183;47.412;18.884;2024-03-25T06:55:58;98388.84;;;7.19;97.80
56721;BME280;53183;47.412;18.884;2024-03-25T06:58:27;98387.69;;;7.09;96.54
56721;BME280;53183;47.412;18.884;2024-03-25T07:00:56;98387.03;;;7.05;97.46
56721;BME280;53183;47.412;18.884;2024-03-25T07:03:23;98384.13;;;7.10;96.70
56721;BME280;53183;47.412;18.884;2024-03-25T07:05:51;98388.88;;;7.03;98.00
56721;BME280;53183;47.412;18.884;2024-03-25T07:08:24;98393.94;;;7.22;97.20
56721;BME280;53183;47.412;18.884;2024-03-25T07:10:51;98394.22;;;7.47;96.94
56721;BME280;53183;47.412;18.884;2024-03-25T07:13:20;98389.44;;;7.68;95.29
56721;BME280;53183;47.412;18.884;2024-03-25T07:15:49;98391.44;;;7.79;93.50
56721;BME280;53183;47.412;18.884;2024-03-25T07:18:15;98396.38;;;7.99;91.70
56721;BME280;53183;47.412;18.884;2024-03-25T07:20:43;98392.50;;;8.05;89.64
56721;BME280;53183;47.412;18.884;2024-03-25T07:23:09;98408.56;;;8.15;89.02
56721;BME280;53183;47.412;18.884;2024-03-25T07:25:36;98411.38;;;8.55;82.83
56721;BME280;53183;47.412;18.884;2024-03-25T07:28:03;98404.91;;;8.60;82.72
56721;BME280;53183;47.412;18.884;2024-03-25T07:30:29;98405.53;;;8.35;82.71
56721;BME280;53183;47.412;18.884;2024-03-25T07:32:57;98395.38;;;8.72;81.86
56721;BME280;53183;47.412;18.884;2024-03-25T07:35:23;98406.31;;;9.20;80.15
56721;BME280;53183;47.412;18.884;2024-03-25T07:37:51;98407.41;;;9.30;78.91
56721;BME280;53183;47.412;18.884;2024-03-25T07:40:18;98408.31;;;8.89;79.66
56721;BME280;53183;47.412;18.884;2024-03-25T07:42:45;98417.63;;;9.22;79.32
56721;BME280;53183;47.412;18.884;2024-03-25T07:45:12;98406.19;;;9.09;78.49
56721;BME280;53183;47.412;18.884;2024-03-25T07:47:39;98410.25;;;9.00;79.45
56721;BME280;53183;47.412;18.884;2024-03-25T07:50:06;98415.31;;;9.03;80.47
56721;BME280;53183;47.412;18.884;2024-03-25T07:52:33;98414.31;;;8.91;80.33
56721;BME280;53183;47.412;18.884;2024-03-25T07:55:02;98407.53;;;9.02;79.32
56721;BME280;53183;47.412;18.884;2024-03-25T07:57:29;98416.16;;;9.31;78.21
56721;BME280;53183;47.412;18.884;2024-03-25T07:59:57;98401.47;;;9.67;77.12
56721;BME280;53183;47.412;18.884;2024-03-25T08:02:23;98412.59;;;9.97;74.17
56721;BME280;53183;47.412;18.884;2024-03-25T08:04:51;98405.34;;;9.48;75.67
56721;BME280;53183;47.412;18.884;2024-03-25T08:07:17;98398.09;;;9.52;74.94
56721;BME280;53183;47.412;18.884;2024-03-25T08:09:53;98400.13;;;10.50;71.98
56721;BME280;53183;47.412;18.884;2024-03-25T08:12:20;98397.03;;;10.93;70.34
56721;BME280;53183;47.412;18.884;2024-03-25T08:14:47;98406.72;;;11.06;67.44
56721;BME280;53183;47.412;18.884;2024-03-25T08:17:13;98390.00;;;11.05;68.94
56721;BME280;53183;47.412;18.884;2024-03-25T08:19:39;98397.81;;;11.07;68.44
56721;BME280;53183;47.412;18.884;2024-03-25T08:22:05;98407.13;;;11.47;67.83
56721;BME280;53183;47.412;18.884;2024-03-25T08:24:31;98397.31;;;11.85;68.25
56721;BME280;53183;47.412;18.884;2024-03-25T08:26:57;98396.75;;;12.15;65.48
56721;BME280;53183;47.412;18.884;2024-03-25T08:29:25;98388.78;;;12.26;63.53
56721;BME280;53183;47.412;18.884;2024-03-25T08:31:51;98401.69;;;13.08;63.76
56721;BME280;53183;47.412;18.884;2024-03-25T08:34:18;98406.50;;;13.14;61.73
56721;BME280;53183;47.412;18.884;2024-03-25T08:36:44;98413.72;;;12.12;61.44
56721;BME280;53183;47.412;18.884;2024-03-25T08:39:10;98397.16;;;11.16;64.26
56721;BME280;53183;47.412;18.884;2024-03-25T08:41:37;98418.38;;;10.66;66.54
56721;BME280;53183;47.412;18.884;2024-03-25T08:44:05;98409.44;;;10.80;67.99
56721;BME280;53183;47.412;18.884;2024-03-25T08:46:31;98408.53;;;11.29;64.37
56721;BME280;53183;47.412;18.884;2024-03-25T08:48:59;98409.75;;;11.36;63.89
56721;BME280;53183;47.412;18.884;2024-03-25T08:51:25;98406.78;;;11.17;64.16
56721;BME280;53183;47.412;18.884;2024-03-25T08:53:51;98423.22;;;11.68;63.81
56721;BME280;53183;47.412;18.884;2024-03-25T08:56:18;98418.69;;;11.46;63.89
56721;BME280;53183;47.412;18.884;2024-03-25T08:58:44;98425.03;;;11.44;63.79
56721;BME280;53183;47.412;18.884;2024-03-25T09:01:12;98422.22;;;11.34;62.53
56721;BME280;53183;47.412;18.884;2024-03-25T09:03:40;98419.34;;;11.37;62.94
56721;BME280;53183;47.412;18.884;2024-03-25T09:06:06;98418.34;;;11.03;63.53
56721;BME280;53183;47.412;18.884;2024-03-25T09:08:33;98406.63;;;10.70;64.05
56721;BME280;53183;47.412;18.884;2024-03-25T09:11:20;98415.16;;;11.11;62.57
56721;BME280;53183;47.412;18.884;2024-03-25T09:13:46;98411.72;;;11.21;61.95
56721;BME280;53183;47.412;18.884;2024-03-25T09:16:14;98422.91;;;11.49;60.12
56721;BME280;53183;47.412;18.884;2024-03-25T09:18:53;98418.47;;;11.49;59.84
56721;BME280;53183;47.412;18.884;2024-03-25T09:21:21;98413.06;;;11.86;60.44
56721;BME280;53183;47.412;18.884;2024-03-25T09:23:50;98409.03;;;11.69;59.33
56721;BME280;53183;47.412;18.884;2024-03-25T09:26:17;98400.47;;;11.66;60.22
56721;BME280;53183;47.412;18.884;2024-03-25T09:28:44;98422.31;;;11.57;61.05
56721;BME280;53183;47.412;18.884;2024-03-25T09:31:11;98413.16;;;11.49;60.75
56721;BME280;53183;47.412;18.884;2024-03-25T09:33:37;98414.69;;;11.76;60.29
56721;BME280;53183;47.412;18.884;2024-03-25T09:36:03;98413.22;;;12.07;59.59
56721;BME280;53183;47.412;18.884;2024-03-25T09:38:30;98411.19;;;12.44;58.13
56721;BME280;53183;47.412;18.884;2024-03-25T09:40:57;98411.03;;;12.91;55.38
56721;BME280;53183;47.412;18.884;2024-03-25T09:43:32;98412.72;;;12.92;55.67
56721;BME280;53183;47.412;18.884;2024-03-25T09:46:01;98399.63;;;12.46;56.30
56721;BME280;53183;47.412;18.884;2024-03-25T09:48:28;98419.00;;;12.12;55.68
56721;BME280;53183;47.412;18.884;2024-03-25T09:50:56;98418.47;;;11.85;56.02
56721;BME280;53183;47.412;18.884;2024-03-25T09:53:24;98419.31;;;11.85;56.32
56721;BME280;53183;47.412;18.884;2024-03-25T09:55:50;98416.34;;;12.12;55.50
56721;BME280;53183;47.412;18.884;2024-03-25T09:58:19;98406.38;;;12.16;55.75
56721;BME280;53183;47.412;18.884;2024-03-25T10:00:46;98418.66;;;12.39;56.08
56721;BME280;53183;47.412;18.884;2024-03-25T10:03:14;98415.19;;;12.28;55.10
56721;BME280;53183;47.412;18.884;2024-03-25T10:05:43;98424.44;;;12.44;54.93
56721;BME280;53183;47.412;18.884;2024-03-25T10:08:12;98413.25;;;12.41;54.14
56721;BME280;53183;47.412;18.884;2024-03-25T10:10:38;98409.75;;;12.52;53.78
56721;BME280;53183;47.412;18.884;2024-03-25T10:13:04;98415.16;;;12.39;53.94
56721;BME280;53183;47.412;18.884;2024-03-25T10:15:32;98416.59;;;12.65;53.76
56721;BME280;53183;47.412;18.884;2024-03-25T10:18:00;98407.09;;;12.52;53.59
56721;BME280;53183;47.412;18.884;2024-03-25T10:20:28;98408.91;;;12.74;54.38
56721;BME280;53183;47.412;18.884;2024-03-25T10:22:54;98407.28;;;12.94;53.03
56721;BME280;53183;47.412;18.884;2024-03-25T10:25:31;98403.34;;;13.31;51.50
56721;BME280;53183;47.412;18.884;2024-03-25T10:27:59;98404.16;;;13.43;50.10
56721;BME280;53183;47.412;18.884;2024-03-25T10:30:28;98402.25;;;13.34;49.12
56721;BME280;53183;47.412;18.884;2024-03-25T10:33:04;98396.84;;;13.77;49.55
56721;BME280;53183;47.412;18.884;2024-03-25T10:35:32;98399.31;;;13.69;49.61
56721;BME280;53183;47.412;18.884;2024-03-25T10:38:06;98388.72;;;13.69;49.21
56721;BME280;53183;47.412;18.884;2024-03-25T10:40:35;98387.47;;;13.09;50.59
56721;BME280;53183;47.412;18.884;2024-03-25T10:43:07;98401.53;;;12.66;50.55
56721;BME280;53183;47.412;18.884;2024-03-25T10:45:45;98382.41;;;13.06;51.05
56721;BME280;53183;47.412;18.884;2024-03-25T10:48:17;98397.88;;;13.65;50.20
56721;BME280;53183;47.412;18.884;2024-03-25T10:50:47;98383.41;;;13.69;47.63
56721;BME280;53183;47.412;18.884;2024-03-25T10:53:17;98382.16;;;13.73;48.15
56721;BME280;53183;47.412;18.884;2024-03-25T10:55:46;98387.97;;;13.67;48.60
56721;BME280;53183;47.412;18.884;2024-03-25T10:58:17;98391.63;;;13.66;48.58
56721;BME280;53183;47.412;18.884;2024-03-25T11:00:48;98389.47;;;13.81;47.90
56721;BME280;53183;47.412;18.884;2024-03-25T11:03:17;98400.34;;;13.57;47.41
56721;BME280;53183;47.412;18.884;2024-03-25T11:05:44;98393.69;;;13.63;47.60
56721;BME280;53183;47.412;18.884;2024-03-25T11:08:15;98390.06;;;13.64;46.88
56721;BME280;53183;47.412;18.884;2024-03-25T11:10:46;98385.16;;;13.59;46.61
56721;BME280;53183;47.412;18.884;2024-03-25T11:13:13;98392.84;;;13.83;46.17
56721;BME280;53183;47.412;18.884;2024-03-25T11:15:41;98401.06;;;14.01;45.15
56721;BME280;53183;47.412;18.884;2024-03-25T11:18:13;98381.59;;;13.70;45.25
56721;BME280;53183;47.412;18.884;2024-03-25T11:20:42;98384.81;;;13.52;46.13
56721;BME280;53183;47.412;18.884;2024-03-25T11:23:09;98383.97;;;13.73;45.99
56721;BME280;53183;47.412;18.884;2024-03-25T11:25:37;98382.34;;;13.40;46.27
56721;BME280;53183;47.412;18.884;2024-03-25T11:28:04;98378.28;;;13.56;46.00
56721;BME280;53183;47.412;18.884;2024-03-25T11:30:40;98383.25;;;13.92;45.76
56721;BME280;53183;47.412;18.884;2024-03-25T11:33:09;98375.22;;;14.03;43.20
56721;BME280;53183;47.412;18.884;2024-03-25T11:35:38;98384.53;;;13.97;43.98
56721;BME280;53183;47.412;18.884;2024-03-25T11:38:05;98365.84;;;13.99;43.70
56721;BME280;53183;47.412;18.884;2024-03-25T11:40:32;98358.72;;;14.40;43.90
56721;BME280;53183;47.412;18.884;2024-03-25T11:42:58;98362.19;;;14.51;43.10
56721;BME280;53183;47.412;18.884;2024-03-25T11:45:24;98350.78;;;14.49;42.78
56721;BME280;53183;47.412;18.884;2024-03-25T11:47:51;98362.09;;;14.11;43.73
56721;BME280;53183;47.412;18.884;2024-03-25T11:50:18;98368.28;;;14.21;43.75
56721;BME280;53183;47.412;18.884;2024-03-25T11:52:45;98369.63;;;14.06;45.82
56721;BME280;53183;47.412;18.884;2024-03-25T11:55:18;98371.97;;;13.78;48.33
56721;BME280;53183;47.412;18.884;2024-03-25T11:57:44;98358.31;;;13.62;49.62
56721;BME280;53183;47.412;18.884;2024-03-25T12:00:11;98347.91;;;13.17;51.03
56721;BME280;53183;47.412;18.884;2024-03-25T12:02:44;98347.22;;;13.04;50.29
56721;BME280;53183;47.412;18.884;2024-03-25T12:05:13;98361.47;;;13.35;47.76
56721;BME280;53183;47.412;18.884;2024-03-25T12:07:39;98363.69;;;13.51;45.93
56721;BME280;53183;47.412;18.884;2024-03-25T12:10:06;98366.84;;;14.07;45.64
56721;BME280;53183;47.412;18.884;2024-03-25T12:12:55;98372.47;;;14.14;44.56
56721;BME280;53183;47.412;18.884;2024-03-25T12:15:22;98382.66;;;14.09;45.40
56721;BME280;53183;47.412;18.884;2024-03-25T12:17:48;98395.09;;;13.88;45.79
56721;BME280;53183;47.412;18.884;2024-03-25T12:20:18;98392.44;;;13.88;44.01
56721;BME280;53183;47.412;18.884;2024-03-25T12:22:45;98399.94;;;13.61;43.41
56721;BME280;53183;47.412;18.884;2024-03-25T12:25:11;98399.94;;;12.86;45.18
56721;BME280;53183;47.412;18.884;2024-03-25T12:27:39;98407.13;;;12.40;48.34
56721;BME280;53183;47.412;18.884;2024-03-25T12:30:09;98400.59;;;12.22;50.66
56721;BME280;53183;47.412;18.884;2024-03-25T12:32:37;98396.72;;;12.04;49.28
56721;BME280;53183;47.412;18.884;2024-03-25T12:35:16;98390.13;;;11.74;49.71
56721;BME280;53183;47.412;18.884;2024-03-25T12:37:47;98383.84;;;11.88;49.79
56721;BME280;53183;47.412;18.884;2024-03-25T12:40:25;98386.22;;;11.91;50.70
56721;BME280;53183;47.412;18.884;2024-03-25T12:42:53;98397.50;;;11.82;50.21
56721;BME280;53183;47.412;18.884;2024-03-25T12:45:20;98386.97;;;11.93;50.99
56721;BME280;53183;47.412;18.884;2024-03-25T12:47:46;98395.03;;;11.56;51.10
56721;BME280;53183;47.412;18.884;2024-03-25T12:50:13;98394.66;;;11.85;50.69
56721;BME280;53183;47.412;18.884;2024-03-25T12:52:41;98394.78;;;11.94;49.97